sensor_id;sensor_type;location;lat;lon;timestamp;P1;durP1;ratioP1;P2;durP2;ratioP2
38222;SDS011;24024;51.186;6.458;2023-09-18T00:01:15;5.15;;;4.28;;
38222;SDS011;24024;51.186;6.458;2023-09-18T00:03:46;5.80;;;4.43;;
38222;SDS011;24024;51.186;6.458;2023-09-18T00:06:15;7.70;;;4.57;;
38222;SDS011;24024;51.186;6.458;2023-09-18T00:08:42;7.45;;;4.80;;
38222;SDS011;24024;51.186;6.458;2023-09-18T00:11:09;6.97;;;4.72;;
38222;SDS011;24024;51.186;6.458;2023-09-18T00:13:37;8.57;;;4.80;;
38222;SDS011;24024;51.186;6.458;2023-09-18T00:16:09;6.20;;;4.53;;
38222;SDS011;24024;51.186;6.458;2023-09-18T00:18:36;7.28;;;4.20;;
38222;SDS011;24024;51.186;6.458;2023-09-18T00:21:03;7.70;;;4.68;;
38222;SDS011;24024;51.186;6.458;2023-09-18T00:23:32;5.97;;;4.60;;
38222;SDS011;24024;51.186;6.458;2023-09-18T00:26:01;5.72;;;4.70;;
38222;SDS011;24024;51.186;6.458;2023-09-18T00:28:28;9.30;;;4.63;;
38222;SDS011;24024;51.186;6.458;2023-09-18T00:30:55;6.57;;;4.97;;
38222;SDS011;24024;51.186;6.458;2023-09-18T00:33:22;6.40;;;4.30;;
38222;SDS011;24024;51.186;6.458;2023-09-18T00:35:52;7.15;;;5.20;;
38222;SDS011;24024;51.186;6.458;2023-09-18T00:38:31;6.85;;;4.90;;
38222;SDS011;24024;51.186;6.458;2023-09-18T00:40:58;8.48;;;5.45;;
38222;SDS011;24024;51.186;6.458;2023-09-18T00:43:27;6.60;;;4.93;;
38222;SDS011;24024;51.186;6.458;2023-09-18T00:45:56;10.50;;;5.78;;
38222;SDS011;24024;51.186;6.458;2023-09-18T00:48:24;10.50;;;6.32;;
38222;SDS011;24024;51.186;6.458;2023-09-18T00:50:54;7.65;;;5.68;;
38222;SDS011;24024;51.186;6.458;2023-09-18T00:53:21;7.22;;;5.13;;
38222;SDS011;24024;51.186;6.458;2023-09-18T00:55:52;6.57;;;4.97;;
38222;SDS011;24024;51.186;6.458;2023-09-18T00:58:21;7.45;;;4.80;;
38222;SDS011;24024;51.186;6.458;2023-09-18T01:00:48;8.25;;;5.10;;
38222;SDS011;24024;51.186;6.458;2023-09-18T01:03:19;8.32;;;5.15;;
38222;SDS011;24024;51.186;6.458;2023-09-18T01:05:53;8.52;;;4.93;;
38222;SDS011;24024;51.186;6.458;2023-09-18T01:08:20;6.78;;;5.18;;
38222;SDS011;24024;51.186;6.458;2023-09-18T01:13:18;7.15;;;5.45;;
38222;SDS011;24024;51.186;6.458;2023-09-18T01:15:57;7.80;;;5.35;;
38222;SDS011;24024;51.186;6.458;2023-09-18T01:18:49;8.15;;;5.75;;
38222;SDS011;24024;51.186;6.458;2023-09-18T01:21:20;8.05;;;5.20;;
38222;SDS011;24024;51.186;6.458;2023-09-18T01:23:48;8.30;;;5.85;;
38222;SDS011;24024;51.186;6.458;2023-09-18T01:26:15;9.13;;;5.88;;
38222;SDS011;24024;51.186;6.458;2023-09-18T01:28:42;9.82;;;6.07;;
38222;SDS011;24024;51.186;6.458;2023-09-18T01:31:09;10.63;;;5.50;;
38222;SDS011;24024;51.186;6.458;2023-09-18T01:33:39;8.23;;;5.72;;
38222;SDS011;24024;51.186;6.458;2023-09-18T01:36:06;9.70;;;5.80;;
38222;SDS011;24024;51.186;6.458;2023-09-18T01:38:35;9.55;;;5.60;;
38222;SDS011;24024;51.186;6.458;2023-09-18T01:41:07;7.18;;;4.85;;
38222;SDS011;24024;51.186;6.458;2023-09-18T01:43:35;8.70;;;5.45;;
38222;SDS011;24024;51.186;6.458;2023-09-18T01:46:02;8.60;;;5.63;;
38222;SDS011;24024;51.186;6.458;2023-09-18T01:48:31;9.85;;;5.75;;
38222;SDS011;24024;51.186;6.458;2023-09-18T01:50:58;10.27;;;5.78;;
38222;SDS011;24024;51.186;6.458;2023-09-18T01:53:28;10.68;;;5.60;;
38222;SDS011;24024;51.186;6.458;2023-09-18T01:55:55;10.02;;;5.88;;
38222;SDS011;24024;51.186;6.458;2023-09-18T01:58:22;9.18;;;5.65;;
38222;SDS011;24024;51.186;6.458;2023-09-18T02:00:52;7.60;;;5.00;;
38222;SDS011;24024;51.186;6.458;2023-09-18T02:03:20;8.32;;;5.60;;
38222;SDS011;24024;51.186;6.458;2023-09-18T02:06:09;10.70;;;5.93;;
38222;SDS011;24024;51.186;6.458;2023-09-18T02:08:36;9.82;;;5.28;;
38222;SDS011;24024;51.186;6.458;2023-09-18T02:11:05;9.45;;;6.22;;
38222;SDS011;24024;51.186;6.458;2023-09-18T02:13:35;8.75;;;5.82;;
38222;SDS011;24024;51.186;6.458;2023-09-18T02:16:02;8.68;;;6.15;;
38222;SDS011;24024;51.186;6.458;2023-09-18T02:18:29;10.32;;;5.75;;
38222;SDS011;24024;51.186;6.458;2023-09-18T02:20:56;9.40;;;5.60;;
38222;SDS011;24024;51.186;6.458;2023-09-18T02:23:23;7.18;;;5.15;;
38222;SDS011;24024;51.186;6.458;2023-09-18T02:25:58;9.73;;;5.75;;
38222;SDS011;24024;51.186;6.458;2023-09-18T02:28:26;7.53;;;6.22;;
38222;SDS011;24024;51.186;6.458;2023-09-18T02:30:55;9.25;;;5.90;;
38222;SDS011;24024;51.186;6.458;2023-09-18T02:33:24;9.20;;;5.80;;
38222;SDS011;24024;51.186;6.458;2023-09-18T02:35:54;7.55;;;4.90;;
38222;SDS011;24024;51.186;6.458;2023-09-18T02:38:23;9.77;;;6.25;;
38222;SDS011;24024;51.186;6.458;2023-09-18T02:40:56;9.95;;;6.15;;
38222;SDS011;24024;51.186;6.458;2023-09-18T02:43:23;9.98;;;6.13;;
38222;SDS011;24024;51.186;6.458;2023-09-18T02:45:51;8.43;;;5.72;;
38222;SDS011;24024;51.186;6.458;2023-09-18T02:48:20;8.68;;;5.07;;
38222;SDS011;24024;51.186;6.458;2023-09-18T02:50:52;9.70;;;5.78;;
38222;SDS011;24024;51.186;6.458;2023-09-18T02:53:22;9.25;;;5.82;;
38222;SDS011;24024;51.186;6.458;2023-09-18T02:55:51;10.27;;;6.00;;
38222;SDS011;24024;51.186;6.458;2023-09-18T02:58:21;11.02;;;6.15;;
38222;SDS011;24024;51.186;6.458;2023-09-18T03:00:54;9.93;;;5.22;;
38222;SDS011;24024;51.186;6.458;2023-09-18T03:03:23;8.52;;;5.30;;
38222;SDS011;24024;51.186;6.458;2023-09-18T03:05:52;10.95;;;5.75;;
38222;SDS011;24024;51.186;6.458;2023-09-18T03:08:26;9.82;;;5.45;;
38222;SDS011;24024;51.186;6.458;2023-09-18T03:10:55;9.88;;;5.20;;
38222;SDS011;24024;51.186;6.458;2023-09-18T03:13:22;9.95;;;5.43;;
38222;SDS011;24024;51.186;6.458;2023-09-18T03:15:49;11.38;;;5.75;;
38222;SDS011;24024;51.186;6.458;2023-09-18T03:18:16;10.15;;;5.57;;
38222;SDS011;24024;51.186;6.458;2023-09-18T03:20:43;10.18;;;5.30;;
38222;SDS011;24024;51.186;6.458;2023-09-18T03:23:09;9.20;;;5.65;;
38222;SDS011;24024;51.186;6.458;2023-09-18T03:25:38;8.98;;;5.00;;
38222;SDS011;24024;51.186;6.458;2023-09-18T03:28:16;8.55;;;5.32;;
38222;SDS011;24024;51.186;6.458;2023-09-18T03:30:46;9.63;;;4.75;;
38222;SDS011;24024;51.186;6.458;2023-09-18T03:33:12;9.93;;;4.93;;
38222;SDS011;24024;51.186;6.458;2023-09-18T03:35:46;9.38;;;5.15;;
38222;SDS011;24024;51.186;6.458;2023-09-18T03:38:14;10.10;;;5.22;;
38222;SDS011;24024;51.186;6.458;2023-09-18T03:40:41;8.30;;;4.70;;
38222;SDS011;24024;51.186;6.458;2023-09-18T03:43:08;9.13;;;5.03;;
38222;SDS011;24024;51.186;6.458;2023-09-18T03:45:39;9.82;;;5.13;;
38222;SDS011;24024;51.186;6.458;2023-09-18T03:48:11;10.10;;;5.20;;
38222;SDS011;24024;51.186;6.458;2023-09-18T03:50:38;9.77;;;5.07;;
38222;SDS011;24024;51.186;6.458;2023-09-18T03:53:06;9.35;;;4.57;;
38222;SDS011;24024;51.186;6.458;2023-09-18T03:55:36;7.32;;;4.55;;
38222;SDS011;24024;51.186;6.458;2023-09-18T03:58:04;8.15;;;4.30;;
38222;SDS011;24024;51.186;6.458;2023-09-18T04:00:31;10.07;;;4.95;;
38222;SDS011;24024;51.186;6.458;2023-09-18T04:02:58;12.27;;;5.95;;
38222;SDS011;24024;51.186;6.458;2023-09-18T04:05:24;9.38;;;5.57;;
38222;SDS011;24024;51.186;6.458;2023-09-18T04:07:51;10.32;;;5.85;;
38222;SDS011;24024;51.186;6.458;2023-09-18T04:10:18;7.20;;;4.32;;
38222;SDS011;24024;51.186;6.458;2023-09-18T04:12:50;7.13;;;4.45;;
38222;SDS011;24024;51.186;6.458;2023-09-18T04:15:19;10.25;;;4.35;;
38222;SDS011;24024;51.186;6.458;2023-09-18T04:17:47;8.77;;;4.15;;
38222;SDS011;24024;51.186;6.458;2023-09-18T04:20:14;8.32;;;3.92;;
38222;SDS011;24024;51.186;6.458;2023-09-18T04:22:47;6.15;;;3.33;;
38222;SDS011;24024;51.186;6.458;2023-09-18T04:25:16;9.02;;;3.70;;
38222;SDS011;24024;51.186;6.458;2023-09-18T04:27:45;6.68;;;3.05;;
38222;SDS011;24024;51.186;6.458;2023-09-18T04:30:13;7.75;;;3.60;;
38222;SDS011;24024;51.186;6.458;2023-09-18T04:32:40;10.23;;;3.80;;
38222;SDS011;24024;51.186;6.458;2023-09-18T04:35:08;5.13;;;3.22;;
38222;SDS011;24024;51.186;6.458;2023-09-18T04:37:39;6.90;;;3.00;;
38222;SDS011;24024;51.186;6.458;2023-09-18T04:40:06;7.65;;;3.60;;
38222;SDS011;24024;51.186;6.458;2023-09-18T04:42:37;8.82;;;3.22;;
38222;SDS011;24024;51.186;6.458;2023-09-18T04:45:05;9.30;;;3.15;;
38222;SDS011;24024;51.186;6.458;2023-09-18T04:47:32;7.30;;;3.25;;
38222;SDS011;24024;51.186;6.458;2023-09-18T04:49:59;7.28;;;3.22;;
38222;SDS011;24024;51.186;6.458;2023-09-18T04:52:28;7.38;;;3.13;;
38222;SDS011;24024;51.186;6.458;2023-09-18T04:54:55;5.88;;;2.95;;
38222;SDS011;24024;51.186;6.458;2023-09-18T04:57:23;6.72;;;2.70;;
38222;SDS011;24024;51.186;6.458;2023-09-18T04:59:50;10.07;;;3.00;;
38222;SDS011;24024;51.186;6.458;2023-09-18T05:02:35;8.10;;;2.80;;
38222;SDS011;24024;51.186;6.458;2023-09-18T05:05:02;8.10;;;3.05;;
38222;SDS011;24024;51.186;6.458;2023-09-18T05:07:30;8.07;;;2.75;;
38222;SDS011;24024;51.186;6.458;2023-09-18T05:09:58;6.28;;;2.50;;
38222;SDS011;24024;51.186;6.458;2023-09-18T05:12:25;6.78;;;2.45;;
38222;SDS011;24024;51.186;6.458;2023-09-18T05:14:52;6.20;;;2.42;;
38222;SDS011;24024;51.186;6.458;2023-09-18T05:17:19;5.90;;;2.60;;
38222;SDS011;24024;51.186;6.458;2023-09-18T05:19:46;6.97;;;2.70;;
38222;SDS011;24024;51.186;6.458;2023-09-18T05:22:13;8.25;;;2.80;;
38222;SDS011;24024;51.186;6.458;2023-09-18T05:24:40;7.45;;;2.40;;
38222;SDS011;24024;51.186;6.458;2023-09-18T05:27:07;6.53;;;2.40;;
38222;SDS011;24024;51.186;6.458;2023-09-18T05:29:36;6.53;;;2.78;;
38222;SDS011;24024;51.186;6.458;2023-09-18T05:32:03;6.55;;;2.55;;
38222;SDS011;24024;51.186;6.458;2023-09-18T05:34:33;4.95;;;2.28;;
38222;SDS011;24024;51.186;6.458;2023-09-18T05:37:02;5.18;;;2.38;;
38222;SDS011;24024;51.186;6.458;2023-09-18T05:39:29;8.23;;;2.88;;
38222;SDS011;24024;51.186;6.458;2023-09-18T05:41:58;6.28;;;2.38;;
38222;SDS011;24024;51.186;6.458;2023-09-18T05:44:25;6.43;;;2.38;;
38222;SDS011;24024;51.186;6.458;2023-09-18T05:46:54;5.45;;;1.92;;
38222;SDS011;24024;51.186;6.458;2023-09-18T05:49:21;5.93;;;2.30;;
38222;SDS011;24024;51.186;6.458;2023-09-18T05:51:48;6.78;;;2.20;;
38222;SDS011;24024;51.186;6.458;2023-09-18T05:54:15;5.68;;;2.03;;
38222;SDS011;24024;51.186;6.458;2023-09-18T05:56:46;4.95;;;1.98;;
38222;SDS011;24024;51.186;6.458;2023-09-18T05:59:14;6.65;;;2.10;;
38222;SDS011;24024;51.186;6.458;2023-09-18T06:01:42;6.65;;;2.28;;
38222;SDS011;24024;51.186;6.458;2023-09-18T06:04:09;5.97;;;2.28;;
38222;SDS011;24024;51.186;6.458;2023-09-18T06:06:37;5.60;;;1.90;;
38222;SDS011;24024;51.186;6.458;2023-09-18T06:09:04;6.30;;;2.38;;
38222;SDS011;24024;51.186;6.458;2023-09-18T06:11:33;5.57;;;2.15;;
38222;SDS011;24024;51.186;6.458;2023-09-18T06:14:00;6.78;;;2.15;;
38222;SDS011;24024;51.186;6.458;2023-09-18T06:16:26;6.22;;;2.50;;
38222;SDS011;24024;51.186;6.458;2023-09-18T06:18:53;4.65;;;2.55;;
38222;SDS011;24024;51.186;6.458;2023-09-18T06:21:22;7.90;;;1.83;;
38222;SDS011;24024;51.186;6.458;2023-09-18T06:23:48;4.95;;;1.90;;
38222;SDS011;24024;51.186;6.458;2023-09-18T06:26:15;5.90;;;1.90;;
38222;SDS011;24024;51.186;6.458;2023-09-18T06:28:42;4.10;;;1.40;;
38222;SDS011;24024;51.186;6.458;2023-09-18T06:31:11;7.07;;;1.65;;
38222;SDS011;24024;51.186;6.458;2023-09-18T06:33:38;4.18;;;1.73;;
38222;SDS011;24024;51.186;6.458;2023-09-18T06:36:05;6.30;;;2.90;;
38222;SDS011;24024;51.186;6.458;2023-09-18T06:38:34;4.93;;;1.90;;
38222;SDS011;24024;51.186;6.458;2023-09-18T06:41:03;6.07;;;1.90;;
38222;SDS011;24024;51.186;6.458;2023-09-18T06:43:30;5.63;;;2.00;;
38222;SDS011;24024;51.186;6.458;2023-09-18T06:45:57;4.93;;;1.67;;
38222;SDS011;24024;51.186;6.458;2023-09-18T06:48:47;4.45;;;1.63;;
38222;SDS011;24024;51.186;6.458;2023-09-18T06:52:05;6.15;;;2.13;;
38222;SDS011;24024;51.186;6.458;2023-09-18T07:10:39;3.65;;;1.40;;
38222;SDS011;24024;51.186;6.458;2023-09-18T07:13:06;4.53;;;1.80;;
38222;SDS011;24024;51.186;6.458;2023-09-18T07:15:33;4.15;;;1.65;;
38222;SDS011;24024;51.186;6.458;2023-09-18T07:18:02;7.28;;;1.73;;
38222;SDS011;24024;51.186;6.458;2023-09-18T07:20:30;5.97;;;1.50;;
38222;SDS011;24024;51.186;6.458;2023-09-18T07:22:58;3.78;;;1.58;;
38222;SDS011;24024;51.186;6.458;2023-09-18T07:25:28;2.85;;;1.38;;
38222;SDS011;24024;51.186;6.458;2023-09-18T07:27:55;3.72;;;2.10;;
38222;SDS011;24024;51.186;6.458;2023-09-18T07:30:24;5.35;;;1.80;;
38222;SDS011;24024;51.186;6.458;2023-09-18T07:32:56;4.82;;;1.58;;
38222;SDS011;24024;51.186;6.458;2023-09-18T07:35:24;5.35;;;1.85;;
38222;SDS011;24024;51.186;6.458;2023-09-18T07:37:54;6.50;;;1.75;;
38222;SDS011;24024;51.186;6.458;2023-09-18T07:40:21;4.82;;;1.60;;
38222;SDS011;24024;51.186;6.458;2023-09-18T07:42:48;4.68;;;1.70;;
38222;SDS011;24024;51.186;6.458;2023-09-18T07:45:15;5.35;;;1.67;;
38222;SDS011;24024;51.186;6.458;2023-09-18T07:47:42;5.20;;;1.63;;
38222;SDS011;24024;51.186;6.458;2023-09-18T07:50:14;4.40;;;1.58;;
38222;SDS011;24024;51.186;6.458;2023-09-18T07:52:44;4.93;;;1.52;;
38222;SDS011;24024;51.186;6.458;2023-09-18T07:55:11;5.20;;;1.45;;
38222;SDS011;24024;51.186;6.458;2023-09-18T07:57:43;4.70;;;1.50;;
38222;SDS011;24024;51.186;6.458;2023-09-18T08:00:14;4.57;;;1.55;;
38222;SDS011;24024;51.186;6.458;2023-09-18T08:02:43;5.07;;;1.50;;
38222;SDS011;24024;51.186;6.458;2023-09-18T08:05:12;6.07;;;1.50;;
38222;SDS011;24024;51.186;6.458;2023-09-18T08:07:39;4.53;;;1.40;;
38222;SDS011;24024;51.186;6.458;2023-09-18T08:10:09;3.72;;;1.38;;
38222;SDS011;24024;51.186;6.458;2023-09-18T08:12:36;6.25;;;1.70;;
38222;SDS011;24024;51.186;6.458;2023-09-18T08:15:05;3.17;;;1.13;;
38222;SDS011;24024;51.186;6.458;2023-09-18T08:17:33;4.30;;;1.50;;
38222;SDS011;24024;51.186;6.458;2023-09-18T08:20:00;3.45;;;1.30;;
38222;SDS011;24024;51.186;6.458;2023-09-18T08:22:27;3.88;;;1.50;;
38222;SDS011;24024;51.186;6.458;2023-09-18T08:24:56;5.35;;;1.98;;
38222;SDS011;24024;51.186;6.458;2023-09-18T08:27:24;6.00;;;2.50;;
38222;SDS011;24024;51.186;6.458;2023-09-18T08:29:50;4.05;;;1.52;;
38222;SDS011;24024;51.186;6.458;2023-09-18T08:32:20;4.53;;;1.58;;
38222;SDS011;24024;51.186;6.458;2023-09-18T08:34:49;4.18;;;1.38;;
38222;SDS011;24024;51.186;6.458;2023-09-18T08:37:16;4.00;;;1.33;;
38222;SDS011;24024;51.186;6.458;2023-09-18T08:39:45;4.93;;;1.52;;
38222;SDS011;24024;51.186;6.458;2023-09-18T08:42:12;4.53;;;1.50;;
38222;SDS011;24024;51.186;6.458;2023-09-18T08:44:41;4.07;;;1.55;;
38222;SDS011;24024;51.186;6.458;2023-09-18T08:47:13;2.92;;;1.20;;
38222;SDS011;24024;51.186;6.458;2023-09-18T08:49:41;5.82;;;1.50;;
38222;SDS011;24024;51.186;6.458;2023-09-18T08:52:15;5.63;;;1.90;;
38222;SDS011;24024;51.186;6.458;2023-09-18T08:54:42;5.43;;;1.40;;
38222;SDS011;24024;51.186;6.458;2023-09-18T08:57:12;7.53;;;2.10;;
38222;SDS011;24024;51.186;6.458;2023-09-18T08:59:39;5.07;;;1.85;;
38222;SDS011;24024;51.186;6.458;2023-09-18T09:02:07;4.72;;;1.48;;
38222;SDS011;24024;51.186;6.458;2023-09-18T09:04:38;6.00;;;1.65;;
38222;SDS011;24024;51.186;6.458;2023-09-18T09:07:05;6.30;;;1.75;;
38222;SDS011;24024;51.186;6.458;2023-09-18T09:09:35;4.22;;;1.30;;
38222;SDS011;24024;51.186;6.458;2023-09-18T09:12:02;4.18;;;1.60;;
38222;SDS011;24024;51.186;6.458;2023-09-18T09:14:29;4.78;;;1.55;;
38222;SDS011;24024;51.186;6.458;2023-09-18T09:16:56;3.70;;;1.58;;
38222;SDS011;24024;51.186;6.458;2023-09-18T09:19:35;4.80;;;1.80;;
38222;SDS011;24024;51.186;6.458;2023-09-18T09:22:05;4.97;;;1.85;;
38222;SDS011;24024;51.186;6.458;2023-09-18T09:24:41;3.35;;;1.42;;
38222;SDS011;24024;51.186;6.458;2023-09-18T09:27:14;5.38;;;1.70;;
38222;SDS011;24024;51.186;6.458;2023-09-18T09:29:51;3.47;;;1.30;;
38222;SDS011;24024;51.186;6.458;2023-09-18T09:32:29;6.45;;;2.03;;
38222;SDS011;24024;51.186;6.458;2023-09-18T09:34:59;4.72;;;1.50;;
38222;SDS011;24024;51.186;6.458;2023-09-18T09:37:37;5.38;;;1.92;;
38222;SDS011;24024;51.186;6.458;2023-09-18T09:40:06;5.65;;;1.50;;
38222;SDS011;24024;51.186;6.458;2023-09-18T09:42:41;3.65;;;1.60;;
38222;SDS011;24024;51.186;6.458;2023-09-18T09:45:12;4.13;;;1.42;;
38222;SDS011;24024;51.186;6.458;2023-09-18T09:47:44;3.75;;;1.60;;
38222;SDS011;24024;51.186;6.458;2023-09-18T09:50:12;5.50;;;1.65;;
38222;SDS011;24024;51.186;6.458;2023-09-18T09:52:49;9.15;;;2.08;;
38222;SDS011;24024;51.186;6.458;2023-09-18T09:57:50;2.75;;;1.45;;
38222;SDS011;24024;51.186;6.458;2023-09-18T10:00:19;4.45;;;1.60;;
38222;SDS011;24024;51.186;6.458;2023-09-18T10:03:06;3.92;;;1.48;;
38222;SDS011;24024;51.186;6.458;2023-09-18T10:05:36;3.17;;;1.30;;
38222;SDS011;24024;51.186;6.458;2023-09-18T10:08:08;2.78;;;1.45;;
38222;SDS011;24024;51.186;6.458;2023-09-18T10:10:45;4.05;;;1.75;;
38222;SDS011;24024;51.186;6.458;2023-09-18T10:13:18;6.38;;;1.50;;
38222;SDS011;24024;51.186;6.458;2023-09-18T10:15:50;4.78;;;1.70;;
38222;SDS011;24024;51.186;6.458;2023-09-18T10:21:05;4.93;;;1.88;;
38222;SDS011;24024;51.186;6.458;2023-09-18T10:26:22;4.05;;;1.85;;
38222;SDS011;24024;51.186;6.458;2023-09-18T10:29:01;3.83;;;1.50;;
38222;SDS011;24024;51.186;6.458;2023-09-18T10:31:32;5.43;;;1.48;;
38222;SDS011;24024;51.186;6.458;2023-09-18T10:34:01;5.38;;;1.98;;
38222;SDS011;24024;51.186;6.458;2023-09-18T10:36:29;4.80;;;2.40;;
38222;SDS011;24024;51.186;6.458;2023-09-18T10:39:02;5.70;;;2.67;;
38222;SDS011;24024;51.186;6.458;2023-09-18T10:41:34;6.40;;;2.60;;
38222;SDS011;24024;51.186;6.458;2023-09-18T10:44:05;3.90;;;2.03;;
38222;SDS011;24024;51.186;6.458;2023-09-18T10:46:33;4.07;;;1.70;;
38222;SDS011;24024;51.186;6.458;2023-09-18T10:49:02;5.13;;;2.45;;
38222;SDS011;24024;51.186;6.458;2023-09-18T10:51:31;6.13;;;2.00;;
38222;SDS011;24024;51.186;6.458;2023-09-18T10:54:04;5.10;;;1.77;;
38222;SDS011;24024;51.186;6.458;2023-09-18T10:56:31;3.20;;;1.77;;
38222;SDS011;24024;51.186;6.458;2023-09-18T10:58:59;4.55;;;1.80;;
38222;SDS011;24024;51.186;6.458;2023-09-18T11:01:28;4.90;;;1.75;;
38222;SDS011;24024;51.186;6.458;2023-09-18T11:04:03;3.25;;;1.55;;
38222;SDS011;24024;51.186;6.458;2023-09-18T11:09:22;4.85;;;2.20;;
38222;SDS011;24024;51.186;6.458;2023-09-18T11:14:40;5.82;;;2.10;;
38222;SDS011;24024;51.186;6.458;2023-09-18T11:17:35;4.93;;;2.20;;
38222;SDS011;24024;51.186;6.458;2023-09-18T11:22:56;4.57;;;2.10;;
38222;SDS011;24024;51.186;6.458;2023-09-18T11:25:39;5.57;;;1.88;;
38222;SDS011;24024;51.186;6.458;2023-09-18T11:28:25;5.40;;;2.28;;
38222;SDS011;24024;51.186;6.458;2023-09-18T11:30:59;5.85;;;1.77;;
38222;SDS011;24024;51.186;6.458;2023-09-18T11:36:08;3.88;;;1.65;;
38222;SDS011;24024;51.186;6.458;2023-09-18T11:38:50;6.07;;;2.13;;
38222;SDS011;24024;51.186;6.458;2023-09-18T11:41:24;4.95;;;1.60;;
38222;SDS011;24024;51.186;6.458;2023-09-18T11:46:35;2.92;;;1.98;;
38222;SDS011;24024;51.186;6.458;2023-09-18T11:49:10;4.65;;;1.92;;
38222;SDS011;24024;51.186;6.458;2023-09-18T11:51:40;3.63;;;1.67;;
38222;SDS011;24024;51.186;6.458;2023-09-18T11:54:07;6.82;;;2.10;;
38222;SDS011;24024;51.186;6.458;2023-09-18T11:56:39;4.03;;;1.88;;
38222;SDS011;24024;51.186;6.458;2023-09-18T11:59:08;4.57;;;2.08;;
38222;SDS011;24024;51.186;6.458;2023-09-18T12:01:36;3.97;;;1.52;;
38222;SDS011;24024;51.186;6.458;2023-09-18T12:04:06;4.55;;;1.90;;
38222;SDS011;24024;51.186;6.458;2023-09-18T12:06:38;6.07;;;1.90;;
38222;SDS011;24024;51.186;6.458;2023-09-18T12:09:06;4.82;;;1.63;;
38222;SDS011;24024;51.186;6.458;2023-09-18T12:11:36;2.97;;;1.40;;
38222;SDS011;24024;51.186;6.458;2023-09-18T12:14:08;4.68;;;2.00;;
38222;SDS011;24024;51.186;6.458;2023-09-18T12:16:41;3.58;;;1.60;;
38222;SDS011;24024;51.186;6.458;2023-09-18T12:19:15;4.40;;;1.63;;
38222;SDS011;24024;51.186;6.458;2023-09-18T12:21:49;5.25;;;2.17;;
38222;SDS011;24024;51.186;6.458;2023-09-18T12:24:25;4.93;;;2.20;;
38222;SDS011;24024;51.186;6.458;2023-09-18T12:26:53;5.43;;;2.63;;
38222;SDS011;24024;51.186;6.458;2023-09-18T12:29:23;4.63;;;1.63;;
38222;SDS011;24024;51.186;6.458;2023-09-18T12:31:52;5.53;;;2.15;;
38222;SDS011;24024;51.186;6.458;2023-09-18T12:34:19;3.08;;;1.50;;
38222;SDS011;24024;51.186;6.458;2023-09-18T12:36:49;6.13;;;1.80;;
38222;SDS011;24024;51.186;6.458;2023-09-18T12:39:17;6.15;;;1.65;;
38222;SDS011;24024;51.186;6.458;2023-09-18T12:41:47;3.55;;;1.50;;
38222;SDS011;24024;51.186;6.458;2023-09-18T12:44:14;4.45;;;1.48;;
38222;SDS011;24024;51.186;6.458;2023-09-18T12:46:43;5.90;;;1.65;;
38222;SDS011;24024;51.186;6.458;2023-09-18T12:49:18;5.10;;;1.50;;
38222;SDS011;24024;51.186;6.458;2023-09-18T12:51:57;2.83;;;1.42;;
38222;SDS011;24024;51.186;6.458;2023-09-18T12:54:39;2.72;;;1.33;;
38222;SDS011;24024;51.186;6.458;2023-09-18T12:57:07;3.65;;;1.30;;
38222;SDS011;24024;51.186;6.458;2023-09-18T12:59:37;4.53;;;1.60;;
38222;SDS011;24024;51.186;6.458;2023-09-18T13:04:39;3.60;;;1.42;;
38222;SDS011;24024;51.186;6.458;2023-09-18T13:07:13;3.92;;;1.70;;
38222;SDS011;24024;51.186;6.458;2023-09-18T13:09:41;3.25;;;1.70;;
38222;SDS011;24024;51.186;6.458;2023-09-18T13:12:08;6.65;;;1.80;;
38222;SDS011;24024;51.186;6.458;2023-09-18T13:17:26;5.03;;;1.80;;
38222;SDS011;24024;51.186;6.458;2023-09-18T13:19:53;5.97;;;1.80;;
38222;SDS011;24024;51.186;6.458;2023-09-18T13:22:25;4.70;;;1.40;;
38222;SDS011;24024;51.186;6.458;2023-09-18T13:24:58;3.45;;;1.40;;
38222;SDS011;24024;51.186;6.458;2023-09-18T13:27:25;4.50;;;1.65;;
38222;SDS011;24024;51.186;6.458;2023-09-18T13:29:52;3.15;;;1.30;;
38222;SDS011;24024;51.186;6.458;2023-09-18T13:32:22;3.10;;;1.35;;
38222;SDS011;24024;51.186;6.458;2023-09-18T13:34:50;4.45;;;1.55;;
38222;SDS011;24024;51.186;6.458;2023-09-18T13:37:16;6.60;;;1.98;;
38222;SDS011;24024;51.186;6.458;2023-09-18T13:39:46;3.38;;;1.27;;
38222;SDS011;24024;51.186;6.458;2023-09-18T13:42:15;4.25;;;1.60;;
38222;SDS011;24024;51.186;6.458;2023-09-18T13:44:42;3.25;;;1.10;;
38222;SDS011;24024;51.186;6.458;2023-09-18T13:47:09;3.42;;;1.50;;
38222;SDS011;24024;51.186;6.458;2023-09-18T13:49:38;3.63;;;1.80;;
38222;SDS011;24024;51.186;6.458;2023-09-18T13:52:07;2.83;;;1.40;;
38222;SDS011;24024;51.186;6.458;2023-09-18T13:54:33;2.97;;;1.30;;
38222;SDS011;24024;51.186;6.458;2023-09-18T13:57:03;5.35;;;1.50;;
38222;SDS011;24024;51.186;6.458;2023-09-18T13:59:34;3.13;;;1.50;;
38222;SDS011;24024;51.186;6.458;2023-09-18T14:02:02;4.80;;;1.45;;
38222;SDS011;24024;51.186;6.458;2023-09-18T14:04:31;5.10;;;1.65;;
38222;SDS011;24024;51.186;6.458;2023-09-18T14:07:00;3.15;;;1.42;;
38222;SDS011;24024;51.186;6.458;2023-09-18T14:09:29;4.03;;;1.83;;
38222;SDS011;24024;51.186;6.458;2023-09-18T14:11:56;5.28;;;1.90;;
38222;SDS011;24024;51.186;6.458;2023-09-18T14:14:23;4.63;;;2.00;;
38222;SDS011;24024;51.186;6.458;2023-09-18T14:16:53;2.70;;;1.30;;
38222;SDS011;24024;51.186;6.458;2023-09-18T14:19:23;3.67;;;1.48;;
38222;SDS011;24024;51.186;6.458;2023-09-18T14:21:52;3.35;;;1.80;;
38222;SDS011;24024;51.186;6.458;2023-09-18T14:24:20;5.22;;;1.90;;
38222;SDS011;24024;51.186;6.458;2023-09-18T14:26:51;3.60;;;1.40;;
38222;SDS011;24024;51.186;6.458;2023-09-18T14:29:19;14.93;;;7.13;;
38222;SDS011;24024;51.186;6.458;2023-09-18T14:31:48;9.80;;;5.60;;
38222;SDS011;24024;51.186;6.458;2023-09-18T14:34:19;4.03;;;2.00;;
38222;SDS011;24024;51.186;6.458;2023-09-18T14:36:46;9.27;;;3.22;;
38222;SDS011;24024;51.186;6.458;2023-09-18T14:39:16;4.45;;;2.22;;
38222;SDS011;24024;51.186;6.458;2023-09-18T14:41:45;6.80;;;2.70;;
38222;SDS011;24024;51.186;6.458;2023-09-18T14:44:16;8.98;;;4.07;;
38222;SDS011;24024;51.186;6.458;2023-09-18T14:46:43;5.30;;;1.90;;
38222;SDS011;24024;51.186;6.458;2023-09-18T14:49:12;6.68;;;2.08;;
38222;SDS011;24024;51.186;6.458;2023-09-18T14:51:41;8.82;;;3.22;;
38222;SDS011;24024;51.186;6.458;2023-09-18T14:54:10;4.75;;;1.60;;
38222;SDS011;24024;51.186;6.458;2023-09-18T14:56:40;8.52;;;3.72;;
38222;SDS011;24024;51.186;6.458;2023-09-18T14:59:06;7.80;;;3.13;;
38222;SDS011;24024;51.186;6.458;2023-09-18T15:01:36;4.25;;;1.70;;
38222;SDS011;24024;51.186;6.458;2023-09-18T15:04:03;5.43;;;1.90;;
38222;SDS011;24024;51.186;6.458;2023-09-18T15:06:32;3.42;;;1.55;;
38222;SDS011;24024;51.186;6.458;2023-09-18T15:09:00;4.55;;;1.60;;
38222;SDS011;24024;51.186;6.458;2023-09-18T15:11:29;3.20;;;1.75;;
38222;SDS011;24024;51.186;6.458;2023-09-18T15:13:56;4.38;;;1.83;;
38222;SDS011;24024;51.186;6.458;2023-09-18T15:16:25;3.63;;;1.50;;
38222;SDS011;24024;51.186;6.458;2023-09-18T15:18:59;4.57;;;1.67;;
38222;SDS011;24024;51.186;6.458;2023-09-18T15:23:58;3.08;;;1.65;;
38222;SDS011;24024;51.186;6.458;2023-09-18T15:26:25;4.15;;;1.50;;
38222;SDS011;24024;51.186;6.458;2023-09-18T15:28:53;3.05;;;1.30;;
38222;SDS011;24024;51.186;6.458;2023-09-18T15:31:22;4.90;;;1.50;;
38222;SDS011;24024;51.186;6.458;2023-09-18T15:33:51;4.20;;;1.40;;
38222;SDS011;24024;51.186;6.458;2023-09-18T15:36:21;4.68;;;1.70;;
38222;SDS011;24024;51.186;6.458;2023-09-18T15:38:55;4.53;;;1.40;;
38222;SDS011;24024;51.186;6.458;2023-09-18T15:41:25;4.80;;;1.48;;
38222;SDS011;24024;51.186;6.458;2023-09-18T15:43:54;3.67;;;1.50;;
38222;SDS011;24024;51.186;6.458;2023-09-18T15:46:25;2.92;;;1.65;;
38222;SDS011;24024;51.186;6.458;2023-09-18T15:48:54;3.95;;;1.40;;
38222;SDS011;24024;51.186;6.458;2023-09-18T15:51:22;4.22;;;1.40;;